sensor_id;sensor_type;location;lat;lon;timestamp;temperature;humidity
47532;DHT22;33273;52.254;7.988;2022-12-13T00:00:45;-4.30;95.40
47532;DHT22;33273;52.254;7.988;2022-12-13T00:03:11;-4.40;95.20
47532;DHT22;33273;52.254;7.988;2022-12-13T00:05:43;-4.40;95.00
47532;DHT22;33273;52.254;7.988;2022-12-13T00:08:09;-4.40;95.10
47532;DHT22;33273;52.254;7.988;2022-12-13T00:10:35;-4.40;95.00
47532;DHT22;33273;52.254;7.988;2022-12-13T00:13:01;-4.40;95.00
47532;DHT22;33273;52.254;7.988;2022-12-13T00:15:29;-4.50;94.90
47532;DHT22;33273;52.254;7.988;2022-12-13T00:17:54;-4.50;94.80
47532;DHT22;33273;52.254;7.988;2022-12-13T00:20:20;-4.50;94.70
47532;DHT22;33273;52.254;7.988;2022-12-13T00:22:46;-4.50;94.70
47532;DHT22;33273;52.254;7.988;2022-12-13T00:25:12;-4.50;94.70
47532;DHT22;33273;52.254;7.988;2022-12-13T00:27:38;-4.50;94.50
47532;DHT22;33273;52.254;7.988;2022-12-13T00:30:04;-4.50;94.50
47532;DHT22;33273;52.254;7.988;2022-12-13T00:32:30;-4.50;94.50
47532;DHT22;33273;52.254;7.988;2022-12-13T00:34:56;-4.60;94.20
47532;DHT22;33273;52.254;7.988;2022-12-13T00:37:22;-4.60;94.20
47532;DHT22;33273;52.254;7.988;2022-12-13T00:39:47;-4.60;94.20
47532;DHT22;33273;52.254;7.988;2022-12-13T00:42:13;-4.60;94.20
47532;DHT22;33273;52.254;7.988;2022-12-13T00:44:39;-4.70;94.00
47532;DHT22;33273;52.254;7.988;2022-12-13T00:47:05;-4.70;94.00
47532;DHT22;33273;52.254;7.988;2022-12-13T00:49:31;-4.70;94.00
47532;DHT22;33273;52.254;7.988;2022-12-13T00:51:57;-4.70;94.00
47532;DHT22;33273;52.254;7.988;2022-12-13T00:54:23;-4.70;94.00
47532;DHT22;33273;52.254;7.988;2022-12-13T00:56:49;-4.80;93.80
47532;DHT22;33273;52.254;7.988;2022-12-13T00:59:16;-4.80;93.70
47532;DHT22;33273;52.254;7.988;2022-12-13T01:01:42;-4.80;93.70
47532;DHT22;33273;52.254;7.988;2022-12-13T01:04:08;-4.80;93.70
47532;DHT22;33273;52.254;7.988;2022-12-13T01:06:38;-4.90;93.60
47532;DHT22;33273;52.254;7.988;2022-12-13T01:09:06;-4.90;93.60
47532;DHT22;33273;52.254;7.988;2022-12-13T01:11:32;-4.90;93.60
47532;DHT22;33273;52.254;7.988;2022-12-13T01:13:58;-4.90;93.60
47532;DHT22;33273;52.254;7.988;2022-12-13T01:16:24;-4.90;93.50
47532;DHT22;33273;52.254;7.988;2022-12-13T01:18:51;-4.90;93.40
47532;DHT22;33273;52.254;7.988;2022-12-13T01:21:18;-5.00;93.10
47532;DHT22;33273;52.254;7.988;2022-12-13T01:23:47;-5.00;93.00
47532;DHT22;33273;52.254;7.988;2022-12-13T01:26:20;-5.00;93.10
47532;DHT22;33273;52.254;7.988;2022-12-13T01:28:47;-5.10;93.20
47532;DHT22;33273;52.254;7.988;2022-12-13T01:31:16;-5.10;93.20
47532;DHT22;33273;52.254;7.988;2022-12-13T01:33:42;-5.10;93.40
47532;DHT22;33273;52.254;7.988;2022-12-13T01:36:14;-5.10;93.40
47532;DHT22;33273;52.254;7.988;2022-12-13T01:38:41;-5.10;93.50
47532;DHT22;33273;52.254;7.988;2022-12-13T01:41:08;-5.10;93.50
47532;DHT22;33273;52.254;7.988;2022-12-13T01:46:08;-5.10;93.50
47532;DHT22;33273;52.254;7.988;2022-12-13T01:48:38;-5.10;93.40
47532;DHT22;33273;52.254;7.988;2022-12-13T01:51:06;-5.20;93.10
47532;DHT22;33273;52.254;7.988;2022-12-13T01:53:36;-5.20;93.00
47532;DHT22;33273;52.254;7.988;2022-12-13T01:56:07;-5.20;92.80
47532;DHT22;33273;52.254;7.988;2022-12-13T01:58:36;-5.30;92.80
47532;DHT22;33273;52.254;7.988;2022-12-13T02:01:03;-5.30;92.90
47532;DHT22;33273;52.254;7.988;2022-12-13T02:03:30;-5.30;93.10
47532;DHT22;33273;52.254;7.988;2022-12-13T02:06:04;-5.30;93.10
47532;DHT22;33273;52.254;7.988;2022-12-13T02:08:32;-5.30;93.10
47532;DHT22;33273;52.254;7.988;2022-12-13T02:11:00;-5.30;92.80
47532;DHT22;33273;52.254;7.988;2022-12-13T02:13:26;-5.30;92.60
47532;DHT22;33273;52.254;7.988;2022-12-13T02:21:12;-5.40;92.60
47532;DHT22;33273;52.254;7.988;2022-12-13T02:24:15;-5.40;92.50
47532;DHT22;33273;52.254;7.988;2022-12-13T02:27:03;-5.40;92.60
47532;DHT22;33273;52.254;7.988;2022-12-13T02:32:43;-5.40;92.60
47532;DHT22;33273;52.254;7.988;2022-12-13T02:35:34;-5.40;92.60
47532;DHT22;33273;52.254;7.988;2022-12-13T02:41:15;-5.50;92.80
47532;DHT22;33273;52.254;7.988;2022-12-13T02:46:21;-5.50;92.60
47532;DHT22;33273;52.254;7.988;2022-12-13T02:48:51;-5.50;92.50
47532;DHT22;33273;52.254;7.988;2022-12-13T02:51:21;-5.50;92.60
47532;DHT22;33273;52.254;7.988;2022-12-13T02:53:47;-5.50;92.60
47532;DHT22;33273;52.254;7.988;2022-12-13T02:56:13;-5.60;92.50
47532;DHT22;33273;52.254;7.988;2022-12-13T02:58:47;-5.60;92.40
47532;DHT22;33273;52.254;7.988;2022-12-13T03:07:17;-5.70;92.30
47532;DHT22;33273;52.254;7.988;2022-12-13T03:17:53;-5.80;92.50
47532;DHT22;33273;52.254;7.988;2022-12-13T03:20:24;-5.70;92.90
47532;DHT22;33273;52.254;7.988;2022-12-13T03:22:51;-5.80;93.20
47532;DHT22;33273;52.254;7.988;2022-12-13T03:25:20;-5.70;93.20
47532;DHT22;33273;52.254;7.988;2022-12-13T03:27:47;-5.80;92.90
47532;DHT22;33273;52.254;7.988;2022-12-13T03:30:13;-5.80;92.90
47532;DHT22;33273;52.254;7.988;2022-12-13T03:32:39;-5.80;92.90
47532;DHT22;33273;52.254;7.988;2022-12-13T03:35:06;-5.80;92.80
47532;DHT22;33273;52.254;7.988;2022-12-13T03:37:32;-5.80;92.80
47532;DHT22;33273;52.254;7.988;2022-12-13T03:39:58;-5.80;92.90
47532;DHT22;33273;52.254;7.988;2022-12-13T03:42:24;-5.90;92.90
47532;DHT22;33273;52.254;7.988;2022-12-13T03:44:50;-5.80;92.70
47532;DHT22;33273;52.254;7.988;2022-12-13T03:47:16;-5.90;92.90
47532;DHT22;33273;52.254;7.988;2022-12-13T03:49:42;-5.90;93.00
47532;DHT22;33273;52.254;7.988;2022-12-13T03:52:08;-5.90;93.20
47532;DHT22;33273;52.254;7.988;2022-12-13T03:54:34;-5.90;93.10
47532;DHT22;33273;52.254;7.988;2022-12-13T03:57:00;-5.90;92.90
47532;DHT22;33273;52.254;7.988;2022-12-13T03:59:26;-5.90;93.00
47532;DHT22;33273;52.254;7.988;2022-12-13T04:01:52;-6.00;93.00
47532;DHT22;33273;52.254;7.988;2022-12-13T04:04:18;-6.00;93.00
47532;DHT22;33273;52.254;7.988;2022-12-13T04:06:44;-6.00;93.00
47532;DHT22;33273;52.254;7.988;2022-12-13T04:09:10;-6.00;93.00
47532;DHT22;33273;52.254;7.988;2022-12-13T04:11:36;-6.00;93.30
47532;DHT22;33273;52.254;7.988;2022-12-13T04:14:20;-6.00;93.40
47532;DHT22;33273;52.254;7.988;2022-12-13T04:16:46;-6.00;93.50
47532;DHT22;33273;52.254;7.988;2022-12-13T04:19:12;-6.00;93.30
47532;DHT22;33273;52.254;7.988;2022-12-13T04:21:38;-6.00;93.10
47532;DHT22;33273;52.254;7.988;2022-12-13T04:24:04;-6.00;92.90
47532;DHT22;33273;52.254;7.988;2022-12-13T04:26:30;-6.10;92.70
47532;DHT22;33273;52.254;7.988;2022-12-13T04:28:56;-6.10;93.00
47532;DHT22;33273;52.254;7.988;2022-12-13T04:31:22;-6.10;93.30
47532;DHT22;33273;52.254;7.988;2022-12-13T04:33:48;-6.10;93.60
47532;DHT22;33273;52.254;7.988;2022-12-13T04:36:14;-6.10;93.70
47532;DHT22;33273;52.254;7.988;2022-12-13T04:38:47;-6.10;93.60
47532;DHT22;33273;52.254;7.988;2022-12-13T04:41:15;-6.10;93.50
47532;DHT22;33273;52.254;7.988;2022-12-13T04:43:41;-6.10;93.40
47532;DHT22;33273;52.254;7.988;2022-12-13T04:46:07;-6.10;93.20
47532;DHT22;33273;52.254;7.988;2022-12-13T04:48:33;-6.10;93.00
47532;DHT22;33273;52.254;7.988;2022-12-13T04:50:59;-6.20;92.80
47532;DHT22;33273;52.254;7.988;2022-12-13T04:53:26;-6.20;92.70
47532;DHT22;33273;52.254;7.988;2022-12-13T04:55:52;-6.20;92.70
47532;DHT22;33273;52.254;7.988;2022-12-13T04:58:18;-6.20;92.70
47532;DHT22;33273;52.254;7.988;2022-12-13T05:00:44;-6.20;92.50
47532;DHT22;33273;52.254;7.988;2022-12-13T05:03:10;-6.20;92.40
47532;DHT22;33273;52.254;7.988;2022-12-13T05:05:40;-6.30;92.50
47532;DHT22;33273;52.254;7.988;2022-12-13T05:08:06;-6.20;92.60
47532;DHT22;33273;52.254;7.988;2022-12-13T05:10:33;-6.20;92.50
47532;DHT22;33273;52.254;7.988;2022-12-13T05:13:02;-6.30;92.40
47532;DHT22;33273;52.254;7.988;2022-12-13T05:15:35;-6.30;92.30
47532;DHT22;33273;52.254;7.988;2022-12-13T05:18:04;-6.30;92.30
47532;DHT22;33273;52.254;7.988;2022-12-13T05:20:30;-6.30;92.10
47532;DHT22;33273;52.254;7.988;2022-12-13T05:22:57;-6.30;92.00
47532;DHT22;33273;52.254;7.988;2022-12-13T05:25:25;-6.30;92.10
47532;DHT22;33273;52.254;7.988;2022-12-13T05:27:51;-6.40;91.80
47532;DHT22;33273;52.254;7.988;2022-12-13T05:30:18;-6.30;91.80
47532;DHT22;33273;52.254;7.988;2022-12-13T05:32:44;-6.30;91.90
47532;DHT22;33273;52.254;7.988;2022-12-13T05:35:15;-6.40;92.10
47532;DHT22;33273;52.254;7.988;2022-12-13T05:37:41;-6.40;92.40
47532;DHT22;33273;52.254;7.988;2022-12-13T05:40:07;-6.40;92.70
47532;DHT22;33273;52.254;7.988;2022-12-13T05:42:36;-6.40;92.80
47532;DHT22;33273;52.254;7.988;2022-12-13T05:45:06;-6.40;92.70
47532;DHT22;33273;52.254;7.988;2022-12-13T05:47:33;-6.40;92.60
47532;DHT22;33273;52.254;7.988;2022-12-13T05:49:59;-6.40;92.70
47532;DHT22;33273;52.254;7.988;2022-12-13T05:52:25;-6.40;92.70
47532;DHT22;33273;52.254;7.988;2022-12-13T05:54:55;-6.40;92.60
47532;DHT22;33273;52.254;7.988;2022-12-13T05:57:21;-6.40;92.50
47532;DHT22;33273;52.254;7.988;2022-12-13T05:59:47;-6.40;92.30
47532;DHT22;33273;52.254;7.988;2022-12-13T06:02:13;-6.40;92.20
47532;DHT22;33273;52.254;7.988;2022-12-13T06:04:40;-6.50;92.20
47532;DHT22;33273;52.254;7.988;2022-12-13T06:07:06;-6.50;92.10
47532;DHT22;33273;52.254;7.988;2022-12-13T06:09:35;-6.50;92.50
47532;DHT22;33273;52.254;7.988;2022-12-13T06:12:04;-6.50;93.20
47532;DHT22;33273;52.254;7.988;2022-12-13T06:14:30;-6.50;93.70
47532;DHT22;33273;52.254;7.988;2022-12-13T06:16:56;-6.50;93.80
47532;DHT22;33273;52.254;7.988;2022-12-13T06:19:23;-6.50;94.00
47532;DHT22;33273;52.254;7.988;2022-12-13T06:21:49;-6.50;93.80
47532;DHT22;33273;52.254;7.988;2022-12-13T06:24:18;-6.60;93.70
47532;DHT22;33273;52.254;7.988;2022-12-13T06:26:45;-6.60;94.00
47532;DHT22;33273;52.254;7.988;2022-12-13T06:29:17;-6.50;94.30
47532;DHT22;33273;52.254;7.988;2022-12-13T06:31:43;-6.50;94.20
47532;DHT22;33273;52.254;7.988;2022-12-13T06:34:09;-6.50;94.10
47532;DHT22;33273;52.254;7.988;2022-12-13T06:36:35;-6.50;94.20
47532;DHT22;33273;52.254;7.988;2022-12-13T06:39:06;-6.50;94.30
47532;DHT22;33273;52.254;7.988;2022-12-13T06:41:32;-6.50;94.30
47532;DHT22;33273;52.254;7.988;2022-12-13T06:43:59;-6.50;94.40
47532;DHT22;33273;52.254;7.988;2022-12-13T06:46:25;-6.50;94.30
47532;DHT22;33273;52.254;7.988;2022-12-13T06:48:51;-6.50;94.20
47532;DHT22;33273;52.254;7.988;2022-12-13T06:51:18;-6.50;94.10
47532;DHT22;33273;52.254;7.988;2022-12-13T06:53:44;-6.50;94.20
47532;DHT22;33273;52.254;7.988;2022-12-13T06:56:12;-6.50;94.00
47532;DHT22;33273;52.254;7.988;2022-12-13T06:58:40;-6.50;93.70
47532;DHT22;33273;52.254;7.988;2022-12-13T07:01:08;-6.50;93.50
47532;DHT22;33273;52.254;7.988;2022-12-13T07:03:35;-6.60;93.20
47532;DHT22;33273;52.254;7.988;2022-12-13T07:06:08;-6.60;92.90
47532;DHT22;33273;52.254;7.988;2022-12-13T07:08:36;-6.60;92.90
47532;DHT22;33273;52.254;7.988;2022-12-13T07:11:02;-6.60;92.80
47532;DHT22;33273;52.254;7.988;2022-12-13T07:13:28;-6.60;92.60
47532;DHT22;33273;52.254;7.988;2022-12-13T07:15:55;-6.60;92.40
47532;DHT22;33273;52.254;7.988;2022-12-13T07:18:21;-6.70;92.30
47532;DHT22;33273;52.254;7.988;2022-12-13T07:20:47;-6.70;92.30
47532;DHT22;33273;52.254;7.988;2022-12-13T07:23:13;-6.70;92.10
47532;DHT22;33273;52.254;7.988;2022-12-13T07:25:39;-6.70;92.00
47532;DHT22;33273;52.254;7.988;2022-12-13T07:28:07;-6.70;91.80
47532;DHT22;33273;52.254;7.988;2022-12-13T07:30:38;-6.70;91.80
47532;DHT22;33273;52.254;7.988;2022-12-13T07:33:05;-6.70;91.80
47532;DHT22;33273;52.254;7.988;2022-12-13T07:35:31;-6.70;91.70
47532;DHT22;33273;52.254;7.988;2022-12-13T07:37:57;-6.80;91.50
47532;DHT22;33273;52.254;7.988;2022-12-13T07:40:24;-6.70;91.50
47532;DHT22;33273;52.254;7.988;2022-12-13T07:42:54;-6.70;91.60
47532;DHT22;33273;52.254;7.988;2022-12-13T07:45:21;-6.70;91.70
47532;DHT22;33273;52.254;7.988;2022-12-13T07:47:48;-6.70;91.60
47532;DHT22;33273;52.254;7.988;2022-12-13T07:50:14;-6.70;91.60
47532;DHT22;33273;52.254;7.988;2022-12-13T07:52:40;-6.70;91.60
47532;DHT22;33273;52.254;7.988;2022-12-13T07:55:07;-6.70;91.50
47532;DHT22;33273;52.254;7.988;2022-12-13T07:57:34;-6.70;91.40
47532;DHT22;33273;52.254;7.988;2022-12-13T08:00:00;-6.70;91.40
47532;DHT22;33273;52.254;7.988;2022-12-13T08:02:26;-6.70;91.50
47532;DHT22;33273;52.254;7.988;2022-12-13T08:04:52;-6.70;91.50
47532;DHT22;33273;52.254;7.988;2022-12-13T08:07:18;-6.60;91.60
47532;DHT22;33273;52.254;7.988;2022-12-13T08:09:44;-6.60;91.60
47532;DHT22;33273;52.254;7.988;2022-12-13T08:12:11;-6.60;91.70
47532;DHT22;33273;52.254;7.988;2022-12-13T08:14:36;-6.60;91.80
47532;DHT22;33273;52.254;7.988;2022-12-13T08:17:03;-6.60;91.90
47532;DHT22;33273;52.254;7.988;2022-12-13T08:19:28;-6.50;92.20
47532;DHT22;33273;52.254;7.988;2022-12-13T08:21:54;-6.60;92.30
47532;DHT22;33273;52.254;7.988;2022-12-13T08:24:22;-6.50;92.60
47532;DHT22;33273;52.254;7.988;2022-12-13T08:26:48;-6.50;92.90
47532;DHT22;33273;52.254;7.988;2022-12-13T08:29:14;-6.40;93.20
47532;DHT22;33273;52.254;7.988;2022-12-13T08:31:40;-6.40;93.60
47532;DHT22;33273;52.254;7.988;2022-12-13T08:34:06;-6.40;93.90
47532;DHT22;33273;52.254;7.988;2022-12-13T08:36:32;-6.30;94.40
47532;DHT22;33273;52.254;7.988;2022-12-13T08:38:57;-6.30;94.60
47532;DHT22;33273;52.254;7.988;2022-12-13T08:41:27;-6.30;94.80
47532;DHT22;33273;52.254;7.988;2022-12-13T08:43:53;-6.20;94.90
47532;DHT22;33273;52.254;7.988;2022-12-13T08:46:19;-6.20;95.10
47532;DHT22;33273;52.254;7.988;2022-12-13T08:48:45;-6.10;95.40
47532;DHT22;33273;52.254;7.988;2022-12-13T08:51:13;-6.10;95.50
47532;DHT22;33273;52.254;7.988;2022-12-13T08:53:42;-6.00;95.70
47532;DHT22;33273;52.254;7.988;2022-12-13T08:56:11;-6.00;95.70
47532;DHT22;33273;52.254;7.988;2022-12-13T08:58:38;-6.00;95.80
47532;DHT22;33273;52.254;7.988;2022-12-13T09:01:06;-5.90;96.00
47532;DHT22;33273;52.254;7.988;2022-12-13T09:03:32;-5.80;96.20
47532;DHT22;33273;52.254;7.988;2022-12-13T09:06:05;-5.80;96.00
47532;DHT22;33273;52.254;7.988;2022-12-13T09:08:31;-5.80;95.90
47532;DHT22;33273;52.254;7.988;2022-12-13T09:10:58;-5.70;96.10
47532;DHT22;33273;52.254;7.988;2022-12-13T09:13:24;-5.70;96.30
47532;DHT22;33273;52.254;7.988;2022-12-13T09:15:50;-5.70;96.30
47532;DHT22;33273;52.254;7.988;2022-12-13T09:18:16;-5.60;96.30
47532;DHT22;33273;52.254;7.988;2022-12-13T09:20:42;-5.50;96.50
47532;DHT22;33273;52.254;7.988;2022-12-13T09:23:09;-5.50;96.50
47532;DHT22;33273;52.254;7.988;2022-12-13T09:25:35;-5.40;96.70
47532;DHT22;33273;52.254;7.988;2022-12-13T09:28:01;-5.40;96.80
47532;DHT22;33273;52.254;7.988;2022-12-13T09:30:27;-5.30;97.00
47532;DHT22;33273;52.254;7.988;2022-12-13T09:32:54;-5.30;97.00
47532;DHT22;33273;52.254;7.988;2022-12-13T09:35:20;-5.20;97.00
47532;DHT22;33273;52.254;7.988;2022-12-13T09:37:46;-5.20;97.10
47532;DHT22;33273;52.254;7.988;2022-12-13T09:40:24;-5.10;97.30
47532;DHT22;33273;52.254;7.988;2022-12-13T09:42:55;-5.00;97.60
47532;DHT22;33273;52.254;7.988;2022-12-13T09:45:23;-4.90;97.90
47532;DHT22;33273;52.254;7.988;2022-12-13T09:47:49;-4.90;97.90
47532;DHT22;33273;52.254;7.988;2022-12-13T09:52:47;-4.70;98.50
47532;DHT22;33273;52.254;7.988;2022-12-13T09:55:22;-4.60;98.70
47532;DHT22;33273;52.254;7.988;2022-12-13T09:57:50;-4.50;98.80
47532;DHT22;33273;52.254;7.988;2022-12-13T10:00:18;-4.40;99.00
47532;DHT22;33273;52.254;7.988;2022-12-13T10:02:56;-4.30;99.10
47532;DHT22;33273;52.254;7.988;2022-12-13T10:05:29;-4.30;99.00
47532;DHT22;33273;52.254;7.988;2022-12-13T10:07:57;-4.10;99.00
47532;DHT22;33273;52.254;7.988;2022-12-13T10:10:25;-4.10;99.00
47532;DHT22;33273;52.254;7.988;2022-12-13T10:12:57;-4.00;98.90
47532;DHT22;33273;52.254;7.988;2022-12-13T10:15:27;-4.00;99.00
47532;DHT22;33273;52.254;7.988;2022-12-13T10:17:53;-3.90;98.80
47532;DHT22;33273;52.254;7.988;2022-12-13T10:20:20;-3.80;98.70
47532;DHT22;33273;52.254;7.988;2022-12-13T10:22:48;-3.80;98.70
47532;DHT22;33273;52.254;7.988;2022-12-13T10:25:14;-3.70;98.60
47532;DHT22;33273;52.254;7.988;2022-12-13T10:27:45;-3.60;98.40
47532;DHT22;33273;52.254;7.988;2022-12-13T10:30:18;-3.60;98.30
47532;DHT22;33273;52.254;7.988;2022-12-13T10:35:31;-3.40;97.60
47532;DHT22;33273;52.254;7.988;2022-12-13T10:38:28;-3.30;97.50
47532;DHT22;33273;52.254;7.988;2022-12-13T10:40:54;-3.20;97.20
47532;DHT22;33273;52.254;7.988;2022-12-13T10:43:22;-3.20;96.80
47532;DHT22;33273;52.254;7.988;2022-12-13T10:51:02;-3.00;96.30
47532;DHT22;33273;52.254;7.988;2022-12-13T10:53:31;-2.90;96.00
47532;DHT22;33273;52.254;7.988;2022-12-13T10:55:58;-2.90;95.50
47532;DHT22;33273;52.254;7.988;2022-12-13T10:58:40;-2.80;95.30
47532;DHT22;33273;52.254;7.988;2022-12-13T11:01:28;-2.80;94.90
47532;DHT22;33273;52.254;7.988;2022-12-13T11:04:18;-2.70;94.80
47532;DHT22;33273;52.254;7.988;2022-12-13T11:06:46;-2.70;94.30
47532;DHT22;33273;52.254;7.988;2022-12-13T11:09:32;-2.60;94.20
47532;DHT22;33273;52.254;7.988;2022-12-13T11:12:01;-2.60;94.20
47532;DHT22;33273;52.254;7.988;2022-12-13T11:14:31;-2.50;94.30
47532;DHT22;33273;52.254;7.988;2022-12-13T11:17:04;-2.50;94.50
47532;DHT22;33273;52.254;7.988;2022-12-13T11:19:48;-2.40;94.40
47532;DHT22;33273;52.254;7.988;2022-12-13T11:22:27;-2.40;94.10
47532;DHT22;33273;52.254;7.988;2022-12-13T11:25:26;-2.30;93.70
47532;DHT22;33273;52.254;7.988;2022-12-13T11:30:35;-2.20;93.70
47532;DHT22;33273;52.254;7.988;2022-12-13T11:33:26;-2.20;93.90
47532;DHT22;33273;52.254;7.988;2022-12-13T11:41:28;-2.00;93.80
47532;DHT22;33273;52.254;7.988;2022-12-13T11:44:13;-1.90;93.90
47532;DHT22;33273;52.254;7.988;2022-12-13T11:46:45;-1.80;93.80
47532;DHT22;33273;52.254;7.988;2022-12-13T11:49:43;-1.80;93.30
47532;DHT22;33273;52.254;7.988;2022-12-13T11:52:24;-1.70;92.90
47532;DHT22;33273;52.254;7.988;2022-12-13T11:55:07;-1.70;92.00
47532;DHT22;33273;52.254;7.988;2022-12-13T11:58:03;-1.60;91.20
47532;DHT22;33273;52.254;7.988;2022-12-13T12:00:43;-1.60;90.70
47532;DHT22;33273;52.254;7.988;2022-12-13T12:03:22;-1.50;91.00
47532;DHT22;33273;52.254;7.988;2022-12-13T12:05:58;-1.50;90.60
47532;DHT22;33273;52.254;7.988;2022-12-13T12:08:43;-1.40;89.90
47532;DHT22;33273;52.254;7.988;2022-12-13T12:13:54;-1.40;89.70
47532;DHT22;33273;52.254;7.988;2022-12-13T12:16:34;-1.30;89.50
47532;DHT22;33273;52.254;7.988;2022-12-13T12:19:02;-1.30;88.70
47532;DHT22;33273;52.254;7.988;2022-12-13T12:21:42;-1.30;88.60
47532;DHT22;33273;52.254;7.988;2022-12-13T12:27:36;-1.20;88.00
47532;DHT22;33273;52.254;7.988;2022-12-13T12:30:50;-1.10;87.90
47532;DHT22;33273;52.254;7.988;2022-12-13T12:33:31;-1.10;87.10
47532;DHT22;33273;52.254;7.988;2022-12-13T12:42:09;-1.00;85.80
47532;DHT22;33273;52.254;7.988;2022-12-13T12:52:40;-0.80;84.10
47532;DHT22;33273;52.254;7.988;2022-12-13T13:03:39;-0.70;82.70
47532;DHT22;33273;52.254;7.988;2022-12-13T13:06:20;-0.60;82.40
47532;DHT22;33273;52.254;7.988;2022-12-13T13:09:20;-0.60;81.70
47532;DHT22;33273;52.254;7.988;2022-12-13T13:11:48;-0.60;80.90
47532;DHT22;33273;52.254;7.988;2022-12-13T13:16:49;-0.60;80.70
47532;DHT22;33273;52.254;7.988;2022-12-13T13:24:20;-0.40;82.40
47532;DHT22;33273;52.254;7.988;2022-12-13T13:26:56;-0.50;81.20
47532;DHT22;33273;52.254;7.988;2022-12-13T13:34:36;-0.40;81.10
47532;DHT22;33273;52.254;7.988;2022-12-13T13:37:04;-0.50;80.80
47532;DHT22;33273;52.254;7.988;2022-12-13T13:39:58;-0.50;80.30
47532;DHT22;33273;52.254;7.988;2022-12-13T13:42:26;-0.50;80.30
47532;DHT22;33273;52.254;7.988;2022-12-13T13:45:14;-0.50;80.70
47532;DHT22;33273;52.254;7.988;2022-12-13T13:47:42;-0.50;81.00
47532;DHT22;33273;52.254;7.988;2022-12-13T14:07:37;-0.30;82.40
47532;DHT22;33273;52.254;7.988;2022-12-13T14:10:05;-0.30;82.00
47532;DHT22;33273;52.254;7.988;2022-12-13T14:12:37;-0.40;82.10
47532;DHT22;33273;52.254;7.988;2022-12-13T14:29:40;-0.60;81.20
47532;DHT22;33273;52.254;7.988;2022-12-13T14:32:52;-0.60;81.70
47532;DHT22;33273;52.254;7.988;2022-12-13T14:35:31;-0.60;81.90
47532;DHT22;33273;52.254;7.988;2022-12-13T14:40:36;-0.80;81.60
47532;DHT22;33273;52.254;7.988;2022-12-13T14:43:28;-0.80;81.70
47532;DHT22;33273;52.254;7.988;2022-12-13T14:45:56;-0.90;82.30
47532;DHT22;33273;52.254;7.988;2022-12-13T14:48:23;-0.90;82.30
47532;DHT22;33273;52.254;7.988;2022-12-13T14:50:50;-1.00;83.00
47532;DHT22;33273;52.254;7.988;2022-12-13T14:53:38;-1.00;82.40
47532;DHT22;33273;52.254;7.988;2022-12-13T14:56:11;-1.10;82.60
47532;DHT22;33273;52.254;7.988;2022-12-13T14:58:38;-1.10;82.50
47532;DHT22;33273;52.254;7.988;2022-12-13T15:01:06;-1.20;82.90
47532;DHT22;33273;52.254;7.988;2022-12-13T15:03:48;-1.20;83.20
47532;DHT22;33273;52.254;7.988;2022-12-13T15:06:15;-1.40;83.30
47532;DHT22;33273;52.254;7.988;2022-12-13T15:08:43;-1.50;83.70
47532;DHT22;33273;52.254;7.988;2022-12-13T15:11:09;-1.50;84.10
47532;DHT22;33273;52.254;7.988;2022-12-13T15:13:43;-1.60;84.70
47532;DHT22;33273;52.254;7.988;2022-12-13T15:16:26;-1.70;84.70
47532;DHT22;33273;52.254;7.988;2022-12-13T15:19:13;-1.80;85.50
47532;DHT22;33273;52.254;7.988;2022-12-13T15:22:03;-1.90;85.90
47532;DHT22;33273;52.254;7.988;2022-12-13T15:24:39;-2.00;86.30
47532;DHT22;33273;52.254;7.988;2022-12-13T15:27:25;-2.10;87.40
47532;DHT22;33273;52.254;7.988;2022-12-13T15:29:52;-2.20;87.00
47532;DHT22;33273;52.254;7.988;2022-12-13T15:32:19;-2.20;87.20
47532;DHT22;33273;52.254;7.988;2022-12-13T15:34:48;-2.30;87.60
47532;DHT22;33273;52.254;7.988;2022-12-13T15:37:23;-2.40;88.00
47532;DHT22;33273;52.254;7.988;2022-12-13T15:39:53;-2.50;88.30
47532;DHT22;33273;52.254;7.988;2022-12-13T15:42:32;-2.50;88.60
47532;DHT22;33273;52.254;7.988;2022-12-13T15:45:14;-2.60;89.00
47532;DHT22;33273;52.254;7.988;2022-12-13T15:47:46;-2.60;89.20
47532;DHT22;33273;52.254;7.988;2022-12-13T15:50:33;-2.70;89.60
47532;DHT22;33273;52.254;7.988;2022-12-13T15:53:05;-2.70;89.90
47532;DHT22;33273;52.254;7.988;2022-12-13T15:55:34;-2.80;90.00
47532;DHT22;33273;52.254;7.988;2022-12-13T15:58:00;-2.80;90.10
47532;DHT22;33273;52.254;7.988;2022-12-13T16:00:29;-2.90;90.40
47532;DHT22;33273;52.254;7.988;2022-12-13T16:03:01;-2.90;90.50
47532;DHT22;33273;52.254;7.988;2022-12-13T16:05:34;-3.00;90.60
47532;DHT22;33273;52.254;7.988;2022-12-13T16:08:26;-3.00;90.90
47532;DHT22;33273;52.254;7.988;2022-12-13T16:10:53;-3.00;91.10
47532;DHT22;33273;52.254;7.988;2022-12-13T16:13:30;-3.00;91.20
47532;DHT22;33273;52.254;7.988;2022-12-13T16:15:58;-3.10;91.20
47532;DHT22;33273;52.254;7.988;2022-12-13T16:18:30;-3.10;91.40
47532;DHT22;33273;52.254;7.988;2022-12-13T16:20:57;-3.20;91.50
47532;DHT22;33273;52.254;7.988;2022-12-13T16:23:23;-3.30;91.90
47532;DHT22;33273;52.254;7.988;2022-12-13T16:25:49;-3.30;92.20
47532;DHT22;33273;52.254;7.988;2022-12-13T16:28:15;-3.40;92.30
47532;DHT22;33273;52.254;7.988;2022-12-13T16:33:18;-3.30;94.70
47532;DHT22;33273;52.254;7.988;2022-12-13T16:35:43;-3.30;94.40
47532;DHT22;33273;52.254;7.988;2022-12-13T16:38:17;-3.40;94.40
47532;DHT22;33273;52.254;7.988;2022-12-13T16:40:45;-3.40;95.00
47532;DHT22;33273;52.254;7.988;2022-12-13T16:43:17;-3.40;95.40
47532;DHT22;33273;52.254;7.988;2022-12-13T16:45:47;-3.40;95.40
47532;DHT22;33273;52.254;7.988;2022-12-13T16:48:17;-3.30;95.90
47532;DHT22;33273;52.254;7.988;2022-12-13T16:50:45;-3.40;95.20
47532;DHT22;33273;52.254;7.988;2022-12-13T16:53:13;-3.50;94.80
47532;DHT22;33273;52.254;7.988;2022-12-13T16:55:40;-3.50;94.60
47532;DHT22;33273;52.254;7.988;2022-12-13T16:58:09;-3.50;94.60
47532;DHT22;33273;52.254;7.988;2022-12-13T17:00:36;-3.60;94.30
47532;DHT22;33273;52.254;7.988;2022-12-13T17:03:03;-3.60;94.20
47532;DHT22;33273;52.254;7.988;2022-12-13T17:05:33;-3.70;94.10
47532;DHT22;33273;52.254;7.988;2022-12-13T17:07:59;-3.70;93.90
47532;DHT22;33273;52.254;7.988;2022-12-13T17:10:26;-3.70;93.80
47532;DHT22;33273;52.254;7.988;2022-12-13T17:12:52;-3.70;93.80
47532;DHT22;33273;52.254;7.988;2022-12-13T17:15:18;-3.80;93.70
47532;DHT22;33273;52.254;7.988;2022-12-13T17:17:51;-3.80;93.80
47532;DHT22;33273;52.254;7.988;2022-12-13T17:20:17;-3.80;94.10
47532;DHT22;33273;52.254;7.988;2022-12-13T17:22:44;-3.90;94.10
47532;DHT22;33273;52.254;7.988;2022-12-13T17:25:10;-3.90;94.20
47532;DHT22;33273;52.254;7.988;2022-12-13T17:27:36;-3.90;94.20
47532;DHT22;33273;52.254;7.988;2022-12-13T17:30:07;-4.00;94.10
47532;DHT22;33273;52.254;7.988;2022-12-13T17:32:34;-3.90;94.20
47532;DHT22;33273;52.254;7.988;2022-12-13T17:35:01;-4.00;94.20
47532;DHT22;33273;52.254;7.988;2022-12-13T17:37:30;-4.00;95.00
47532;DHT22;33273;52.254;7.988;2022-12-13T17:39:56;-4.00;94.40
47532;DHT22;33273;52.254;7.988;2022-12-13T17:42:21;-4.00;94.50
47532;DHT22;33273;52.254;7.988;2022-12-13T17:44:47;-4.00;94.60
47532;DHT22;33273;52.254;7.988;2022-12-13T17:47:14;-4.00;94.70
47532;DHT22;33273;52.254;7.988;2022-12-13T17:49:40;-4.00;94.70
47532;DHT22;33273;52.254;7.988;2022-12-13T17:52:07;-4.00;94.60
47532;DHT22;33273;52.254;7.988;2022-12-13T17:54:33;-4.00;95.00